Flight Track Log - Related Links

Times and Time Zones

All times are in EDT time to prevent confusion due to time zone crossing. See the SKW4970 flight status page for this flight to view local times or setup timezone preferences in your user account.

Time Position Orientation Groundspeed Altitude Reporting Facility
EDT Latitude Longitude Course Direction KTS MPH feet Rate Location/Type
Tue 02:54:30 PM 29.9594 -95.3414 270° West 175 201 700  Level Houston Center
Tue 02:55:07 PM 29.9400 -95.3583 217° Southwest 190 219 2,000 2,097 Climbing Houston Center
Tue 02:56:13 PM 29.9475 -95.4417 276° West 259 298 4,300 2,050 Climbing Houston Center
Tue 02:57:00 PM 29.8443 -95.7478 251° West  Level FlightAware Approximate
Tue 02:57:07 PM 29.9728 -95.5047 295° West 259 298 6,100  Level Houston Center
Tue 02:58:00 PM 29.7961 -95.8857 247° West  Level FlightAware Approximate
Tue 02:58:09 PM 29.9831 -95.5906 278° West 276 318 8,900  Level Houston Center
Tue 02:59:00 PM 29.7667 -96.0275 270° West  Level FlightAware Approximate
Tue 02:59:11 PM 29.9847 -95.6842 271° West 290 334 11,100  Level Houston Center
Tue 03:00:13 PM 29.9725 -95.7914 263° West 338 389 13,200 2,371 Climbing Houston Center
Tue 03:01:15 PM 29.9150 -95.9092 241° Southwest 356 410 16,000 2,352 Climbing Houston Center
Tue 03:02:18 PM 29.8631 -96.0142 240° Southwest 360 414 18,100 2,064 Climbing Houston Center
Tue 03:03:20 PM 29.8119 -96.1169 240° Southwest 369 425 20,300 1,935 Climbing Houston Center
Tue 03:04:22 PM 29.7781 -96.2247 250° West 378 435 22,100 1,694 Climbing Houston Center
Tue 03:05:24 PM 29.7908 -96.3431 277° West 381 438 23,800 1,645 Climbing Houston Center
Tue 03:06:26 PM 29.8003 -96.4628 275° West 378 435 25,500 1,065 Climbing Houston Center
Tue 03:07:28 PM 29.8092 -96.5853 275° West 387 445 26,000 242 Climbing Houston Center
Tue 03:08:30 PM 29.8200 -96.7347 275° West 393 452 26,000  Level Houston Center
Tue 03:09:32 PM 29.8294 -96.8553 275° West 384 442 26,000  Level Houston Center
Tue 03:10:34 PM 29.8375 -96.9731 275° West 375 432 26,000  Level Houston Center
Tue 03:11:36 PM 29.8461 -97.0900 275° West 371 427 26,000 -484 Level Houston Center
Tue 03:12:38 PM 29.8808 -97.2028 290° West 379 436 25,000 -1,694 Descending Houston Center
Tue 03:13:40 PM 29.9267 -97.3433 291° West 392 451 22,500 -2,371 Descending Houston Center
Tue 03:14:42 PM 29.9631 -97.4600 290° West 389 448 20,100 -2,323 Descending Houston Center
Tue 03:15:44 PM 29.9939 -97.5811 286° West 364 419 17,700 -2,092 Descending Houston Center
Tue 03:16:31 PM 29.9681 -97.6669 251° West 370 426 16,300 -1,857 Descending Houston Center
Tue 03:17:08 PM 29.9453 -97.7350 249° West 371 427 15,100 -2,026 Descending Houston Center
Tue 03:17:48 PM 29.9172 -97.8094 247° West 368 423 13,700 -1,706 Descending Houston Center
Tue 03:18:50 PM 29.8778 -97.9131 246° West 355 409 12,200 -1,488 Descending Houston Center
Tue 03:19:53 PM 29.8306 -98.0197 243° Southwest 348 400 10,600 -1,404 Descending Houston Center
Tue 03:21:11 PM 29.7819 -98.1342 244° Southwest 286 329 8,900 -1,258 Descending Houston Center
Tue 03:21:57 PM 29.7586 -98.1903 244° Southwest 282 325 8,000 -1,056 Descending Houston Center
Tue 03:22:59 PM 29.7228 -98.2744 244° Southwest 273 314 7,000 -569 Descending Houston Center
Tue 03:24:14 PM 29.6892 -98.3572 245° Southwest 231 266 6,700 -484 Descending Houston Center
Tue 03:25:03 PM 29.6403 -98.3703 193° South 241 277 6,000 -443 Descending Houston Center
Tue 03:26:16 PM 29.5747 -98.3231 148° Southeast 237 273 5,800 -484 Descending Houston Center
Tue 03:27:07 PM 29.5239 -98.2883 149° Southeast 232 267 5,000 -787 Descending Houston Center
Tue 03:28:18 PM 29.4519 -98.2900 181° South 236 272 4,200 -676 Descending Houston Center

Login

Don't have an account? Register now (free) for customized features, flight alerts, and more!